createdAt,value
2023-05-05T00:00:15.733Z,89.88
2023-05-05T00:01:17.676Z,89.87
2023-05-05T00:02:19.438Z,92.30
2023-05-05T00:03:21.764Z,89.94
2023-05-05T00:04:24.211Z,88.91
2023-05-05T00:05:25.817Z,94.33
2023-05-05T00:06:28.714Z,92.33
2023-05-05T00:07:30.363Z,92.28
2023-05-05T00:08:32.066Z,91.43
2023-05-05T00:09:33.627Z,91.55
2023-05-05T00:10:35.218Z,90.54
2023-05-05T00:11:36.797Z,89.36
2023-05-05T00:12:38.386Z,89.14
2023-05-05T00:13:40.020Z,89.15
2023-05-05T00:14:41.672Z,88.96
2023-05-05T00:15:44.861Z,89.36
2023-05-05T00:16:47.133Z,89.67
2023-05-05T00:17:48.745Z,90.00
2023-05-05T00:18:50.414Z,88.78
2023-05-05T00:19:52.341Z,89.12
2023-05-05T00:20:53.959Z,88.72
2023-05-05T00:21:55.679Z,89.89
2023-05-05T00:22:57.349Z,89.01
2023-05-05T00:23:58.952Z,89.12
2023-05-05T00:25:00.784Z,88.64
2023-05-05T00:26:02.447Z,90.91
2023-05-05T00:27:04.059Z,90.62
2023-05-05T00:28:05.748Z,89.58
2023-05-05T00:29:07.363Z,88.70
2023-05-05T00:30:09.812Z,90.49
2023-05-05T00:31:11.548Z,91.38
2023-05-05T00:32:13.192Z,93.86
2023-05-05T00:33:14.799Z,90.38
2023-05-05T00:34:16.532Z,91.32
2023-05-05T00:35:18.294Z,92.17
2023-05-05T00:36:19.889Z,93.83
2023-05-05T00:37:21.568Z,95.53
2023-05-05T00:38:23.396Z,90.64
2023-05-05T00:39:25.325Z,89.72
2023-05-05T00:40:27.085Z,88.74
2023-05-05T00:41:28.664Z,93.20
2023-05-05T00:42:39.782Z,90.27
2023-05-05T00:43:41.416Z,89.10
2023-05-05T00:44:43.136Z,89.35
2023-05-05T00:45:47.564Z,89.83
2023-05-05T00:46:49.314Z,89.21
2023-05-05T00:47:52.782Z,89.55
2023-05-05T00:48:54.693Z,89.70
2023-05-05T00:49:56.325Z,93.53
2023-05-05T00:50:58.645Z,89.55
2023-05-05T00:52:00.334Z,89.37
2023-05-05T00:53:03.573Z,89.96
2023-05-05T00:54:05.540Z,89.65
2023-05-05T00:55:07.396Z,89.61
2023-05-05T00:56:09.047Z,92.06
2023-05-05T00:57:10.932Z,93.99
2023-05-05T00:58:13.562Z,94.99
2023-05-05T00:59:15.230Z,92.07
2023-05-05T01:00:17.775Z,92.61
2023-05-05T01:01:19.635Z,90.77
2023-05-05T01:02:24.771Z,90.76
2023-05-05T01:03:26.651Z,90.51
2023-05-05T01:04:28.373Z,90.66
2023-05-05T01:05:35.421Z,90.57
2023-05-05T01:06:55.564Z,90.51
2023-05-05T01:08:23.048Z,91.49
2023-05-05T01:09:37.257Z,91.70
2023-05-05T01:10:45.912Z,92.85
2023-05-05T01:12:00.432Z,96.72
2023-05-05T01:13:35.105Z,94.31
2023-05-05T01:14:43.255Z,93.86
2023-05-05T01:15:51.856Z,93.38
2023-05-05T01:16:57.279Z,92.29
2023-05-05T01:18:06.996Z,92.49
2023-05-05T01:19:21.892Z,96.07
2023-05-05T01:20:36.226Z,93.55
2023-05-05T01:21:47.304Z,93.49
2023-05-05T01:22:57.640Z,95.43
2023-05-05T01:24:11.204Z,95.98
2023-05-05T01:25:40.858Z,97.01
2023-05-05T01:27:21.185Z,94.41
2023-05-05T01:28:31.491Z,94.97
2023-05-05T01:30:13.512Z,92.75
2023-05-05T01:31:39.983Z,92.64
2023-05-05T01:32:45.941Z,94.68
2023-05-05T01:33:58.984Z,93.10
2023-05-05T01:35:02.942Z,93.47
2023-05-05T01:36:13.478Z,93.67
2023-05-05T01:37:30.635Z,94.83
2023-05-05T01:38:37.056Z,92.20
2023-05-05T01:39:41.373Z,95.90
2023-05-05T01:40:48.334Z,91.93
2023-05-05T01:41:51.360Z,91.66
2023-05-05T01:42:54.641Z,91.96
2023-05-05T01:43:57.290Z,92.04
2023-05-05T01:44:58.851Z,95.23
2023-05-05T01:46:00.853Z,92.55
2023-05-05T01:47:03.515Z,91.21
2023-05-05T01:48:06.494Z,92.84
2023-05-05T01:49:10.192Z,94.07
2023-05-05T01:50:12.422Z,93.56
2023-05-05T01:51:15.902Z,94.84
2023-05-05T01:52:17.816Z,94.57
2023-05-05T01:53:20.435Z,94.15
2023-05-05T01:54:23.740Z,93.33
2023-05-05T01:55:26.348Z,93.32
2023-05-05T01:56:28.884Z,92.46
2023-05-05T01:57:30.940Z,94.00
2023-05-05T01:58:32.836Z,93.64
2023-05-05T01:59:35.932Z,93.37
2023-05-05T02:00:38.634Z,93.06
2023-05-05T02:01:41.631Z,92.98
2023-05-05T02:02:45.662Z,92.63
2023-05-05T02:03:47.772Z,92.99
2023-05-05T02:04:49.806Z,92.83
2023-05-05T02:05:52.211Z,92.82
2023-05-05T02:06:54.666Z,93.07
2023-05-05T02:07:58.310Z,92.57
2023-05-05T02:09:00.647Z,93.31
2023-05-05T02:10:03.043Z,94.34
2023-05-05T02:11:05.452Z,93.90
2023-05-05T02:12:07.589Z,94.59
2023-05-05T02:13:11.048Z,95.36
2023-05-05T02:14:12.904Z,95.42
2023-05-05T02:15:18.690Z,95.17
2023-05-05T02:16:20.707Z,94.18
2023-05-05T02:17:23.039Z,94.35
2023-05-05T02:18:25.840Z,94.24
2023-05-05T02:19:30.493Z,94.74
2023-05-05T02:20:32.391Z,94.49
2023-05-05T02:21:35.761Z,96.10
2023-05-05T02:22:37.720Z,95.46
2023-05-05T02:23:39.345Z,94.85
2023-05-05T02:24:40.929Z,94.85
2023-05-05T02:25:43.845Z,95.22
2023-05-05T02:26:48.516Z,95.02
2023-05-05T02:27:50.520Z,94.45
2023-05-05T02:29:07.449Z,94.85
2023-05-05T02:30:11.265Z,96.76
2023-05-05T02:31:14.083Z,95.50
2023-05-05T02:32:24.195Z,95.45
2023-05-05T02:33:26.837Z,95.22
2023-05-05T02:34:29.577Z,94.72
2023-05-05T02:35:35.846Z,94.36
2023-05-05T02:36:39.947Z,94.01
2023-05-05T02:37:48.483Z,93.97
2023-05-05T02:38:56.392Z,94.02
2023-05-05T02:40:05.552Z,93.70
2023-05-05T02:41:09.372Z,94.03
2023-05-05T02:42:13.551Z,93.18
2023-05-05T02:43:17.079Z,93.20
2023-05-05T02:44:19.965Z,96.93
2023-05-05T02:45:22.731Z,93.58
2023-05-05T02:46:24.880Z,94.96
2023-05-05T02:47:36.667Z,93.44
2023-05-05T02:48:38.334Z,93.83
2023-05-05T02:49:39.955Z,94.33
2023-05-05T02:50:41.574Z,99.17
2023-05-05T02:51:57.897Z,95.50
2023-05-05T02:53:02.226Z,97.06
2023-05-05T02:54:04.161Z,97.19
2023-05-05T02:55:06.477Z,96.14
2023-05-05T02:56:24.192Z,95.38
2023-05-05T02:57:35.478Z,94.94
2023-05-05T02:59:00.221Z,94.88
2023-05-05T03:00:06.611Z,95.06
2023-05-05T03:01:40.629Z,94.16
2023-05-05T03:02:45.981Z,94.75
2023-05-05T03:04:13.308Z,93.85
2023-05-05T03:05:23.303Z,93.31
2023-05-05T03:06:27.200Z,93.82
2023-05-05T03:07:34.790Z,94.05
2023-05-05T03:09:11.162Z,93.99
2023-05-05T03:10:20.311Z,93.27
2023-05-05T03:11:29.520Z,95.50
2023-05-05T03:12:37.905Z,95.00
2023-05-05T03:13:54.082Z,93.92
2023-05-05T03:14:58.649Z,97.04
2023-05-05T03:16:06.578Z,95.05
2023-05-05T03:17:11.542Z,95.52
2023-05-05T03:18:15.713Z,95.31
2023-05-05T03:19:21.392Z,98.12
2023-05-05T03:20:27.440Z,96.41
2023-05-05T03:21:30.495Z,94.77
2023-05-05T03:22:36.140Z,96.99
2023-05-05T03:23:37.965Z,97.47
2023-05-05T03:24:49.714Z,94.92
2023-05-05T03:25:51.917Z,97.28
2023-05-05T03:27:03.040Z,94.93
2023-05-05T03:28:09.394Z,95.15
2023-05-05T03:29:11.333Z,97.29
2023-05-05T03:30:20.156Z,96.88
2023-05-05T03:31:24.969Z,97.48
2023-05-05T03:32:30.993Z,96.16
2023-05-05T03:33:32.620Z,97.99
2023-05-05T03:34:37.372Z,96.15
2023-05-05T03:35:40.248Z,98.78
2023-05-05T03:36:44.394Z,97.81
2023-05-05T03:37:48.085Z,97.03
2023-05-05T03:38:51.458Z,97.64
2023-05-05T03:39:54.522Z,98.54
2023-05-05T03:40:56.827Z,98.67
2023-05-05T03:42:00.860Z,96.83
2023-05-05T03:43:06.092Z,95.91
2023-05-05T03:44:07.929Z,97.10
2023-05-05T03:45:10.839Z,96.09
2023-05-05T03:46:13.715Z,97.31
2023-05-05T03:47:16.808Z,97.16
2023-05-05T03:48:19.426Z,98.40
2023-05-05T03:49:21.136Z,96.92
2023-05-05T03:50:24.324Z,97.40
2023-05-05T03:51:26.151Z,96.48
2023-05-05T03:52:27.990Z,95.50
2023-05-05T03:53:29.676Z,97.16
2023-05-05T03:54:31.541Z,96.71
2023-05-05T03:55:33.209Z,97.01
2023-05-05T03:56:34.799Z,96.31
2023-05-05T03:57:36.468Z,96.93
2023-05-05T03:58:38.038Z,96.03
2023-05-05T03:59:39.664Z,96.28
2023-05-05T04:00:41.461Z,95.88
2023-05-05T04:01:45.042Z,96.25
2023-05-05T04:02:46.699Z,95.75
2023-05-05T04:03:51.253Z,96.07
2023-05-05T04:04:53.362Z,96.90
2023-05-05T04:05:55.029Z,95.97
2023-05-05T04:06:57.078Z,95.72
2023-05-05T04:07:59.127Z,96.11
2023-05-05T04:09:00.873Z,96.60
2023-05-05T04:10:02.529Z,96.59
2023-05-05T04:11:04.200Z,98.81
2023-05-05T04:12:07.668Z,97.32
2023-05-05T04:13:09.534Z,97.12
2023-05-05T04:14:11.648Z,96.46
2023-05-05T04:15:13.274Z,96.44
2023-05-05T04:16:16.132Z,97.53
2023-05-05T04:17:17.879Z,98.34
2023-05-05T04:18:19.500Z,97.37
2023-05-05T04:19:21.198Z,96.69
2023-05-05T04:20:22.987Z,96.62
2023-05-05T04:21:24.723Z,97.14
2023-05-05T04:22:26.303Z,96.00
2023-05-05T04:23:27.985Z,95.28
2023-05-05T04:24:29.741Z,93.39
2023-05-05T04:25:31.608Z,96.15
2023-05-05T04:26:33.399Z,95.04
2023-05-05T04:27:35.280Z,94.32
2023-05-05T04:28:36.877Z,95.18
2023-05-05T04:29:38.442Z,92.94
2023-05-05T04:30:40.747Z,94.23
2023-05-05T04:31:42.820Z,92.02
2023-05-05T04:32:44.602Z,96.33
2023-05-05T04:33:46.215Z,92.48
2023-05-05T04:34:48.481Z,91.75
2023-05-05T04:35:50.821Z,91.70
2023-05-05T04:36:52.448Z,91.24
2023-05-05T04:37:54.851Z,91.37
2023-05-05T04:38:56.678Z,95.53
2023-05-05T04:39:58.561Z,92.81
2023-05-05T04:41:00.194Z,92.43
2023-05-05T04:42:02.287Z,93.16
2023-05-05T04:43:04.006Z,91.17
2023-05-05T04:44:06.101Z,90.07
2023-05-05T04:45:08.857Z,92.42
2023-05-05T04:46:10.882Z,90.53
2023-05-05T04:47:14.561Z,89.59
2023-05-05T04:48:16.724Z,92.40
2023-05-05T04:49:18.359Z,92.22
2023-05-05T04:50:20.387Z,89.62
2023-05-05T04:51:22.648Z,88.87
2023-05-05T04:52:24.215Z,88.73
2023-05-05T04:53:26.475Z,91.11
2023-05-05T04:54:29.017Z,89.80
2023-05-05T04:55:30.671Z,89.08
2023-05-05T04:56:32.531Z,89.24
2023-05-05T04:57:34.130Z,90.73
2023-05-05T04:58:36.015Z,89.49
2023-05-05T04:59:37.709Z,89.54
2023-05-05T05:00:39.440Z,88.71
2023-05-05T05:01:41.227Z,90.81
2023-05-05T05:02:42.912Z,88.39
2023-05-05T05:03:44.742Z,90.62
2023-05-05T05:04:46.956Z,91.07
2023-05-05T05:05:48.588Z,87.40
2023-05-05T05:06:50.176Z,85.90
2023-05-05T05:07:51.793Z,86.54
2023-05-05T05:08:53.385Z,85.54
2023-05-05T05:09:55.019Z,86.92
2023-05-05T05:10:56.592Z,90.16
2023-05-05T05:12:04.339Z,86.43
2023-05-05T05:13:05.937Z,84.88
2023-05-05T05:14:07.536Z,83.74
2023-05-05T05:15:10.003Z,85.93
2023-05-05T05:16:11.504Z,84.60
2023-05-05T05:17:13.323Z,86.50
2023-05-05T05:18:14.994Z,86.01
2023-05-05T05:19:16.946Z,82.85
2023-05-05T05:20:18.997Z,82.98
2023-05-05T05:21:21.259Z,84.07
2023-05-05T05:22:23.271Z,83.97
2023-05-05T05:23:24.903Z,83.88
2023-05-05T05:24:26.504Z,82.75
2023-05-05T05:25:29.043Z,85.64
2023-05-05T05:26:31.030Z,84.97
2023-05-05T05:27:32.607Z,86.94
2023-05-05T05:28:34.147Z,83.41
2023-05-05T05:29:35.716Z,82.67
2023-05-05T05:30:37.459Z,83.28
2023-05-05T05:31:40.949Z,77.71
2023-05-05T05:32:42.661Z,77.00
2023-05-05T05:33:45.219Z,73.65
2023-05-05T05:34:48.397Z,71.33
2023-05-05T05:35:51.097Z,70.56
2023-05-05T05:36:54.786Z,69.51
2023-05-05T05:37:57.319Z,67.08
2023-05-05T05:38:59.773Z,65.04
2023-05-05T05:40:02.548Z,64.09
2023-05-05T05:41:07.672Z,66.84
2023-05-05T05:42:10.926Z,65.86
2023-05-05T05:43:12.485Z,65.77
2023-05-05T05:44:14.124Z,66.88
2023-05-05T05:45:16.314Z,68.94
2023-05-05T05:46:19.336Z,69.07
2023-05-05T05:47:21.460Z,69.09
2023-05-05T05:48:28.303Z,68.79
2023-05-05T05:49:30.506Z,62.23
2023-05-05T05:50:32.093Z,61.89
2023-05-05T05:51:34.317Z,58.76
2023-05-05T05:52:36.860Z,55.97
2023-05-05T05:53:40.394Z,54.76
2023-05-05T05:54:43.323Z,53.81
2023-05-05T05:55:49.114Z,51.53
2023-05-05T05:56:50.777Z,52.92
2023-05-05T05:57:52.426Z,50.27
2023-05-05T05:58:54.661Z,48.79
2023-05-05T05:59:58.841Z,49.11
2023-05-05T06:01:03.946Z,48.02
2023-05-05T06:02:06.053Z,47.70
2023-05-05T06:03:08.188Z,47.34
2023-05-05T06:04:13.227Z,46.06
2023-05-05T06:05:15.140Z,46.00
2023-05-05T06:06:17.820Z,46.52
2023-05-05T06:07:19.677Z,45.77
2023-05-05T06:08:24.317Z,43.99
2023-05-05T06:09:27.889Z,45.28
2023-05-05T06:10:30.281Z,43.97
2023-05-05T06:11:37.082Z,44.30
2023-05-05T06:12:38.741Z,43.48
2023-05-05T06:13:40.369Z,43.59
2023-05-05T06:14:42.030Z,43.76
2023-05-05T06:15:43.696Z,42.01
2023-05-05T06:16:47.647Z,43.20
2023-05-05T06:17:53.577Z,40.74
2023-05-05T06:18:56.461Z,39.52
2023-05-05T06:19:58.084Z,39.72
2023-05-05T06:21:00.215Z,40.13
2023-05-05T06:22:03.205Z,41.75
2023-05-05T06:23:04.801Z,42.08
2023-05-05T06:24:08.867Z,40.81
2023-05-05T06:25:11.184Z,41.29
2023-05-05T06:26:13.646Z,40.89
2023-05-05T06:27:15.477Z,42.77
2023-05-05T06:28:17.639Z,41.59
2023-05-05T06:29:19.295Z,40.13
2023-05-05T06:30:20.901Z,40.84
2023-05-05T06:31:22.818Z,38.77
2023-05-05T06:32:24.474Z,38.77
2023-05-05T06:33:26.076Z,37.71
2023-05-05T06:34:27.691Z,39.07
2023-05-05T06:35:30.294Z,38.19
2023-05-05T06:36:32.358Z,36.15
2023-05-05T06:37:34.025Z,38.21
2023-05-05T06:38:36.474Z,38.49
2023-05-05T06:39:38.050Z,36.63
2023-05-05T06:40:39.594Z,35.74
2023-05-05T06:41:41.498Z,38.14
2023-05-05T06:42:43.058Z,37.93
2023-05-05T06:43:50.530Z,36.26
2023-05-05T06:44:52.116Z,35.79
2023-05-05T06:45:53.690Z,37.20
2023-05-05T06:46:55.420Z,36.30
2023-05-05T06:47:57.106Z,36.23
2023-05-05T06:48:58.671Z,35.42
2023-05-05T06:50:00.221Z,37.89
2023-05-05T06:51:02.782Z,37.94
2023-05-05T06:52:04.581Z,36.85
2023-05-05T06:53:06.205Z,37.23
2023-05-05T06:54:07.889Z,35.24
2023-05-05T06:55:09.801Z,34.46
2023-05-05T06:56:11.609Z,34.97
2023-05-05T06:57:13.222Z,34.60
2023-05-05T06:58:14.854Z,34.81
2023-05-05T06:59:16.651Z,35.06
2023-05-05T07:00:18.673Z,35.28
2023-05-05T07:01:20.346Z,34.66
2023-05-05T07:02:22.566Z,34.15
2023-05-05T07:03:25.314Z,34.47
2023-05-05T07:04:26.954Z,31.55
2023-05-05T07:05:28.568Z,32.48
2023-05-05T07:06:30.167Z,32.13
2023-05-05T07:07:32.521Z,30.15
2023-05-05T07:08:34.153Z,29.57
2023-05-05T07:09:35.960Z,30.95
2023-05-05T07:10:37.825Z,29.95
2023-05-05T07:11:39.430Z,29.85
2023-05-05T07:12:41.059Z,29.44
2023-05-05T07:13:42.899Z,30.11
2023-05-05T07:14:44.556Z,30.03
2023-05-05T07:15:49.091Z,29.29
2023-05-05T07:16:51.507Z,30.65
2023-05-05T07:17:53.319Z,30.17
2023-05-05T07:18:55.077Z,30.87
2023-05-05T07:19:56.662Z,29.46
2023-05-05T07:20:58.201Z,31.50
2023-05-05T07:21:59.738Z,28.37
2023-05-05T07:23:01.307Z,28.05
2023-05-05T07:24:03.408Z,29.83
2023-05-05T07:25:05.141Z,28.47
2023-05-05T07:26:06.797Z,29.30
2023-05-05T07:27:08.407Z,28.85
2023-05-05T07:28:10.411Z,29.03
2023-05-05T07:29:12.003Z,28.86
2023-05-05T07:30:16.553Z,28.93
2023-05-05T07:31:19.850Z,29.38
2023-05-05T07:32:21.557Z,28.05
2023-05-05T07:33:23.212Z,27.53
2023-05-05T07:34:24.788Z,28.08
2023-05-05T07:35:26.448Z,26.89
2023-05-05T07:36:28.408Z,27.30
2023-05-05T07:37:30.037Z,26.43
2023-05-05T07:38:31.626Z,28.13
2023-05-05T07:39:33.628Z,29.52
2023-05-05T07:40:35.233Z,27.85
2023-05-05T07:41:36.810Z,28.08
2023-05-05T07:42:38.407Z,27.82
2023-05-05T07:43:44.195Z,27.89
2023-05-05T07:44:46.338Z,27.14
2023-05-05T07:45:47.983Z,27.48
2023-05-05T07:46:49.722Z,27.05
2023-05-05T07:47:51.313Z,28.42
2023-05-05T07:48:52.903Z,28.19
2023-05-05T07:49:54.530Z,27.63
2023-05-05T07:50:56.176Z,27.21
2023-05-05T07:51:57.778Z,27.18
2023-05-05T07:53:06.546Z,26.10
2023-05-05T07:54:17.207Z,28.45
2023-05-05T07:55:18.883Z,28.49
2023-05-05T07:56:21.763Z,27.64
2023-05-05T07:57:23.573Z,27.07
2023-05-05T07:58:25.198Z,26.20
2023-05-05T07:59:26.864Z,28.25
2023-05-05T08:00:28.412Z,27.03
2023-05-05T08:01:30.021Z,27.46
2023-05-05T08:02:31.665Z,28.21
2023-05-05T08:03:33.412Z,27.52
2023-05-05T08:04:35.307Z,27.68
2023-05-05T08:05:38.206Z,27.62
2023-05-05T08:06:39.834Z,27.75
2023-05-05T08:07:41.754Z,27.59
2023-05-05T08:08:43.489Z,26.67
2023-05-05T08:09:45.117Z,27.61
2023-05-05T08:10:46.690Z,28.87
2023-05-05T08:11:48.390Z,27.77
2023-05-05T08:12:50.108Z,26.28
2023-05-05T08:13:51.915Z,28.06
2023-05-05T08:14:53.548Z,26.98
2023-05-05T08:15:55.205Z,28.09
2023-05-05T08:16:56.901Z,29.27
2023-05-05T08:17:58.556Z,27.46
2023-05-05T08:19:00.206Z,29.21
2023-05-05T08:20:01.886Z,27.33
2023-05-05T08:21:04.794Z,28.56
2023-05-05T08:22:06.570Z,29.60
2023-05-05T08:23:08.165Z,29.97
2023-05-05T08:24:09.787Z,29.02
2023-05-05T08:25:12.871Z,30.86
2023-05-05T08:26:14.544Z,31.76
2023-05-05T08:27:16.174Z,30.93
2023-05-05T08:28:17.740Z,30.97
2023-05-05T08:29:19.323Z,31.35
2023-05-05T08:30:22.208Z,33.19
2023-05-05T08:31:23.850Z,33.30
2023-05-05T08:32:26.772Z,31.98
2023-05-05T08:33:30.069Z,32.73
2023-05-05T08:34:31.675Z,31.84
2023-05-05T08:35:33.241Z,33.07
2023-05-05T08:36:34.856Z,31.82
2023-05-05T08:37:36.476Z,30.36
2023-05-05T08:38:38.080Z,30.93
2023-05-05T08:39:39.689Z,30.35
2023-05-05T08:40:41.455Z,30.52
2023-05-05T08:41:43.090Z,32.18
2023-05-05T08:42:45.729Z,30.44
2023-05-05T08:43:50.664Z,31.69
2023-05-05T08:44:52.436Z,33.31
2023-05-05T08:45:56.206Z,32.29
2023-05-05T08:46:58.658Z,33.90
2023-05-05T08:48:01.984Z,33.30
2023-05-05T08:49:05.880Z,31.78
2023-05-05T08:50:10.102Z,29.82
2023-05-05T08:51:19.445Z,29.30
2023-05-05T08:52:24.521Z,29.05
2023-05-05T08:53:37.440Z,29.02
2023-05-05T08:54:44.296Z,27.62
2023-05-05T08:55:50.673Z,28.38
2023-05-05T08:56:52.551Z,27.05
2023-05-05T08:57:58.434Z,27.30
2023-05-05T08:59:01.259Z,28.57
2023-05-05T09:00:04.174Z,28.47
2023-05-05T09:01:06.594Z,28.03
2023-05-05T09:02:09.368Z,29.19
2023-05-05T09:03:12.157Z,30.95
2023-05-05T09:04:13.873Z,31.40
2023-05-05T09:05:16.178Z,31.03
2023-05-05T09:06:20.875Z,29.13
2023-05-05T09:07:24.127Z,30.16
2023-05-05T09:08:25.966Z,29.58
2023-05-05T09:09:27.571Z,30.28
2023-05-05T09:10:29.323Z,28.94
2023-05-05T09:11:32.727Z,28.33
2023-05-05T09:12:34.493Z,28.36
2023-05-05T09:13:36.083Z,26.80
2023-05-05T09:14:37.648Z,26.74
2023-05-05T09:15:41.276Z,27.17
2023-05-05T09:16:44.050Z,28.21
2023-05-05T09:17:46.981Z,28.63
2023-05-05T09:18:48.719Z,27.35
2023-05-05T09:20:12.225Z,29.46
2023-05-05T09:21:24.855Z,30.52
2023-05-05T09:22:40.096Z,29.25
2023-05-05T09:24:08.125Z,27.73
2023-05-05T09:25:12.450Z,27.85
2023-05-05T09:26:14.397Z,28.50
2023-05-05T09:27:23.354Z,31.71
2023-05-05T09:28:24.935Z,32.27
2023-05-05T09:29:26.568Z,32.72
2023-05-05T09:30:28.206Z,34.21
2023-05-05T09:31:33.980Z,32.81
2023-05-05T09:32:44.731Z,31.63
2023-05-05T09:33:46.436Z,32.92
2023-05-05T09:34:59.095Z,30.58
2023-05-05T09:36:00.758Z,33.30
2023-05-05T09:37:02.396Z,34.86
2023-05-05T09:38:13.279Z,32.29
2023-05-05T09:39:17.144Z,35.00
2023-05-05T09:40:20.312Z,37.39
2023-05-05T09:41:39.962Z,39.15
2023-05-05T09:42:41.834Z,40.50
2023-05-05T09:43:51.847Z,41.78
2023-05-05T09:44:54.210Z,41.77
2023-05-05T09:46:07.218Z,38.04
2023-05-05T09:47:21.951Z,36.68
2023-05-05T09:48:31.727Z,36.90
2023-05-05T09:49:33.376Z,38.65
2023-05-05T09:50:44.415Z,34.43
2023-05-05T09:51:47.078Z,33.12
2023-05-05T09:53:02.002Z,35.09
2023-05-05T09:54:03.677Z,37.73
2023-05-05T09:55:05.709Z,38.90
2023-05-05T09:56:07.988Z,38.41
2023-05-05T09:57:09.813Z,39.01
2023-05-05T09:58:24.706Z,37.30
2023-05-05T09:59:26.292Z,38.46
2023-05-05T10:00:40.181Z,38.17
2023-05-05T10:01:43.684Z,39.03
2023-05-05T10:02:45.704Z,36.71
2023-05-05T10:03:52.123Z,35.96
2023-05-05T10:05:05.009Z,37.56
2023-05-05T10:06:07.901Z,36.28
2023-05-05T10:07:22.730Z,36.58
2023-05-05T10:08:32.078Z,38.56
2023-05-05T10:09:33.677Z,38.07
2023-05-05T10:10:35.299Z,41.41
2023-05-05T10:11:36.984Z,42.65
2023-05-05T10:12:39.101Z,41.40
2023-05-05T10:13:41.956Z,42.89
2023-05-05T10:14:43.695Z,42.04
2023-05-05T10:15:46.021Z,40.57
2023-05-05T10:16:50.558Z,41.13
2023-05-05T10:18:05.901Z,40.62
2023-05-05T10:19:10.467Z,41.79
2023-05-05T10:20:13.683Z,43.01
2023-05-05T10:21:20.218Z,42.69
2023-05-05T10:22:23.231Z,41.45
2023-05-05T10:23:36.236Z,41.58
2023-05-05T10:24:42.938Z,40.04
2023-05-05T10:25:52.124Z,43.16
2023-05-05T10:26:56.834Z,43.65
2023-05-05T10:28:00.136Z,40.20
2023-05-05T10:29:02.614Z,42.91
2023-05-05T10:30:08.857Z,42.79
2023-05-05T10:31:26.052Z,42.80
2023-05-05T10:33:53.789Z,42.09
2023-05-05T10:35:01.479Z,43.93
2023-05-05T10:36:05.306Z,44.22
2023-05-05T10:37:07.324Z,45.65
2023-05-05T10:38:09.795Z,42.70
2023-05-05T10:39:11.905Z,41.96
2023-05-05T10:40:17.743Z,44.11
2023-05-05T10:41:20.592Z,44.42
2023-05-05T10:42:23.501Z,44.99
2023-05-05T10:43:25.251Z,42.40
2023-05-05T10:44:27.717Z,41.43
2023-05-05T10:45:29.475Z,42.24
2023-05-05T10:46:31.632Z,40.66
2023-05-05T10:47:33.773Z,39.42
2023-05-05T10:48:46.020Z,40.68
2023-05-05T10:50:00.219Z,40.90
2023-05-05T10:51:10.838Z,41.44
2023-05-05T10:52:21.082Z,41.58
2023-05-05T10:53:26.146Z,39.96
2023-05-05T10:54:38.300Z,38.09
2023-05-05T10:55:46.184Z,34.39
2023-05-05T10:56:48.216Z,35.76
2023-05-05T10:57:52.738Z,32.68
2023-05-05T10:59:00.064Z,35.77
2023-05-05T11:00:02.287Z,34.88
2023-05-05T11:01:05.427Z,33.88
2023-05-05T11:02:29.303Z,32.88
2023-05-05T11:03:31.260Z,33.32
2023-05-05T11:04:32.822Z,33.48
2023-05-05T11:05:34.388Z,33.31
2023-05-05T11:06:36.022Z,36.11
2023-05-05T11:07:37.985Z,34.57
2023-05-05T11:08:40.299Z,34.36
2023-05-05T11:09:58.774Z,33.74
2023-05-05T11:11:00.898Z,34.16
2023-05-05T11:12:03.222Z,33.95
2023-05-05T11:13:04.812Z,35.64
2023-05-05T11:14:22.510Z,35.17
2023-05-05T11:15:24.128Z,33.88
2023-05-05T11:16:44.405Z,35.03
2023-05-05T11:17:47.221Z,34.14
2023-05-05T11:18:48.980Z,33.83
2023-05-05T11:19:52.196Z,36.93
2023-05-05T11:20:59.516Z,36.90
2023-05-05T11:22:02.958Z,37.18
2023-05-05T11:23:05.040Z,38.07
2023-05-05T11:24:26.963Z,38.01
2023-05-05T11:25:34.723Z,37.36
2023-05-05T11:26:50.310Z,37.37
2023-05-05T11:28:11.418Z,38.75
2023-05-05T11:29:13.044Z,38.63
2023-05-05T11:30:16.895Z,37.06
2023-05-05T11:31:19.258Z,36.68
2023-05-05T11:32:20.853Z,39.76
2023-05-05T11:33:32.398Z,38.86
2023-05-05T11:34:33.993Z,39.59
2023-05-05T11:35:58.419Z,40.66
2023-05-05T11:37:05.666Z,39.88
2023-05-05T11:38:08.059Z,38.36
2023-05-05T11:39:21.508Z,38.78
2023-05-05T11:40:27.345Z,39.91
2023-05-05T11:42:09.357Z,38.70
2023-05-05T11:43:12.164Z,36.21
2023-05-05T11:44:20.928Z,35.18
2023-05-05T11:45:25.595Z,38.83
2023-05-05T11:46:27.251Z,39.41
2023-05-05T11:47:29.809Z,39.62
2023-05-05T11:48:31.456Z,39.98
2023-05-05T11:49:34.493Z,38.06
2023-05-05T11:50:36.099Z,40.53
2023-05-05T11:51:37.788Z,41.86
2023-05-05T11:52:39.350Z,40.68
2023-05-05T11:53:45.957Z,40.62
2023-05-05T11:54:48.993Z,41.34
2023-05-05T11:56:06.173Z,39.47
2023-05-05T11:57:09.021Z,39.19
2023-05-05T11:58:20.474Z,39.30
2023-05-05T11:59:22.645Z,39.37
2023-05-05T12:00:33.801Z,39.79
2023-05-05T12:01:39.592Z,41.12
2023-05-05T12:02:41.344Z,36.81
2023-05-05T12:03:45.444Z,40.92
2023-05-05T12:04:47.665Z,40.10
2023-05-05T12:05:49.392Z,38.32
2023-05-05T12:06:51.065Z,41.99
2023-05-05T12:07:57.154Z,42.06
2023-05-05T12:08:59.164Z,39.99
2023-05-05T12:10:01.197Z,39.46
2023-05-05T12:11:04.555Z,40.57
2023-05-05T12:12:06.499Z,41.47
2023-05-05T12:13:18.153Z,39.88
2023-05-05T12:14:20.568Z,38.30
2023-05-05T12:15:28.767Z,41.64
2023-05-05T12:16:30.352Z,40.20
2023-05-05T12:17:40.080Z,41.63
2023-05-05T12:18:42.459Z,41.39
2023-05-05T12:19:53.693Z,41.11
2023-05-05T12:20:55.313Z,42.63
2023-05-05T12:21:57.064Z,41.31
2023-05-05T12:23:04.861Z,41.83
2023-05-05T12:24:06.997Z,45.83
2023-05-05T12:25:09.214Z,43.79
2023-05-05T12:26:24.037Z,43.83
2023-05-05T12:27:26.981Z,42.73
2023-05-05T12:28:43.348Z,42.17
2023-05-05T12:29:44.966Z,41.54
2023-05-05T12:30:59.055Z,40.59
2023-05-05T12:32:00.834Z,41.37
2023-05-05T12:33:06.927Z,41.49
2023-05-05T12:34:09.784Z,40.76
2023-05-05T12:35:13.018Z,42.97
2023-05-05T12:36:15.270Z,44.22
2023-05-05T12:37:18.991Z,41.40
2023-05-05T12:38:20.661Z,40.05
2023-05-05T12:39:22.443Z,41.40
2023-05-05T12:40:43.197Z,39.88
2023-05-05T12:41:44.859Z,39.78
2023-05-05T12:42:46.590Z,41.82
2023-05-05T12:43:48.245Z,40.34
2023-05-05T12:44:49.977Z,41.71
2023-05-05T12:46:01.579Z,41.05
2023-05-05T12:47:03.345Z,43.94
2023-05-05T12:48:23.416Z,42.11
2023-05-05T12:49:25.153Z,43.62
2023-05-05T12:50:31.021Z,42.17
2023-05-05T12:51:33.806Z,42.85
2023-05-05T12:52:43.440Z,45.41
2023-05-05T12:53:49.760Z,43.97
2023-05-05T12:54:58.806Z,44.13
2023-05-05T12:56:00.398Z,42.85
2023-05-05T12:57:11.023Z,43.52
2023-05-05T12:58:12.687Z,41.95
2023-05-05T12:59:23.382Z,41.71
2023-05-05T13:00:25.665Z,43.08
2023-05-05T13:01:28.335Z,42.17
2023-05-05T13:02:36.638Z,40.64
2023-05-05T13:03:38.226Z,40.11
2023-05-05T13:04:53.281Z,41.05
2023-05-05T13:05:54.883Z,42.81
2023-05-05T13:09:30.934Z,43.20
2023-05-05T13:10:32.601Z,38.78
2023-05-05T13:11:38.029Z,41.31
2023-05-05T13:12:39.672Z,39.66
2023-05-05T13:13:42.108Z,40.08
2023-05-05T13:14:44.073Z,43.15
2023-05-05T13:15:45.875Z,40.40
2023-05-05T13:16:47.565Z,39.76
2023-05-05T13:17:49.168Z,38.29
2023-05-05T13:18:51.317Z,39.00
2023-05-05T13:19:52.912Z,39.76
2023-05-05T13:20:54.484Z,38.80
2023-05-05T13:21:57.329Z,37.97
2023-05-05T13:22:58.917Z,37.77
2023-05-05T13:24:12.477Z,37.18
2023-05-05T13:25:22.082Z,37.29
2023-05-05T13:26:24.805Z,37.73
2023-05-05T13:27:26.363Z,37.31
2023-05-05T13:28:27.993Z,39.32
2023-05-05T13:29:31.580Z,39.63
2023-05-05T13:30:33.375Z,41.21
2023-05-05T13:31:35.080Z,39.45
2023-05-05T13:32:36.889Z,39.43
2023-05-05T13:33:38.606Z,37.47
2023-05-05T13:34:40.220Z,37.48
2023-05-05T13:35:41.837Z,39.75
2023-05-05T13:36:43.461Z,38.44
2023-05-05T13:37:46.626Z,38.73
2023-05-05T13:38:48.239Z,41.92
2023-05-05T13:39:49.906Z,40.99
2023-05-05T13:40:51.516Z,41.14
2023-05-05T13:41:53.626Z,42.67
2023-05-05T13:42:55.517Z,40.75
2023-05-05T13:43:57.115Z,40.85
2023-05-05T13:44:58.706Z,39.16
2023-05-05T13:46:08.910Z,42.14
2023-05-05T13:47:20.795Z,41.61
2023-05-05T13:48:22.632Z,41.12
2023-05-05T13:49:24.310Z,43.45
2023-05-05T13:50:25.931Z,40.87
2023-05-05T13:51:27.859Z,41.88
2023-05-05T13:52:31.594Z,40.29